Terminal Aerodrome Forecast
Issued by NWS

Home | Current Version | Previous Version | Text Only | Print | Product List | Glossary On
Versions: 1 2 3 4 5 6 7 8 9 10 11 12 13
000
FTUS43 KMQT 301200 CCA
TAFIWD
TAF COR
KIWD 301202Z 3012/3112 01005KT 1SM -SHRA BR OVC002
     FM301900 02006KT P6SM OVC010
     FM302200 02005KT P6SM BKN025
     FM310000 08003KT P6SM SCT025
     FM310400 VRB03KT 1 1/2SM BR SCT002
     FM310700 00000KT 1/4SM FG VV002
      AMD NOT SKED=

USA.gov is the U.S. government's official web portal to all federal, state and local government web resources and services.